createdAt,value
2019-03-25T00:01:17.969Z,63.10
2019-03-25T00:03:47.744Z,63.10
2019-03-25T00:06:17.552Z,63.50
2019-03-25T00:08:47.273Z,63.30
2019-03-25T00:11:16.970Z,63.40
2019-03-25T00:13:46.684Z,63.70
2019-03-25T00:16:16.585Z,63.40
2019-03-25T00:18:46.370Z,63.30
2019-03-25T00:21:16.149Z,63.60
2019-03-25T00:23:45.848Z,63.50
2019-03-25T00:26:15.641Z,64.20
2019-03-25T00:28:45.357Z,63.30
2019-03-25T00:31:15.093Z,63.20
2019-03-25T00:33:44.783Z,63.60
2019-03-25T00:36:14.580Z,63.80
2019-03-25T00:38:44.445Z,63.20
2019-03-25T00:41:14.240Z,62.80
2019-03-25T00:43:43.916Z,62.60
2019-03-25T00:46:13.629Z,62.50
2019-03-25T00:48:43.344Z,62.60
2019-03-25T00:51:13.044Z,62.00
2019-03-25T00:53:43.019Z,61.20
2019-03-25T00:56:12.703Z,60.20
2019-03-25T00:58:42.494Z,60.30
2019-03-25T01:01:12.771Z,59.80
2019-03-25T01:03:42.554Z,59.90
2019-03-25T01:06:12.333Z,59.10
2019-03-25T01:08:42.053Z,59.00
2019-03-25T01:11:11.741Z,59.00
2019-03-25T01:13:41.456Z,59.40
2019-03-25T01:16:11.161Z,59.40
2019-03-25T01:18:40.896Z,58.10
2019-03-25T01:21:10.588Z,57.20
2019-03-25T01:23:40.330Z,56.80
2019-03-25T01:26:10.018Z,55.90
2019-03-25T01:28:39.729Z,55.40
2019-03-25T01:31:09.423Z,54.60
2019-03-25T01:33:39.289Z,54.20
2019-03-25T01:36:09.051Z,53.00
2019-03-25T01:38:38.760Z,52.90
2019-03-25T01:41:09.110Z,53.30
2019-03-25T01:43:38.817Z,53.00
2019-03-25T01:46:08.505Z,52.90
2019-03-25T01:48:38.229Z,52.40
2019-03-25T01:51:08.303Z,51.80
2019-03-25T01:53:38.019Z,51.90
2019-03-25T01:56:07.785Z,50.70
2019-03-25T01:58:37.486Z,49.90
2019-03-25T02:01:07.175Z,50.50
2019-03-25T02:03:36.973Z,49.50
2019-03-25T02:06:06.856Z,49.90
2019-03-25T02:08:36.625Z,50.00
2019-03-25T02:11:06.359Z,49.60
2019-03-25T02:13:36.053Z,49.90
2019-03-25T02:16:05.765Z,49.90
2019-03-25T02:18:35.476Z,49.70
2019-03-25T02:21:08.076Z,49.60
2019-03-25T02:23:37.751Z,49.80
2019-03-25T02:26:07.933Z,50.10
2019-03-25T02:28:37.623Z,50.90
2019-03-25T02:31:07.337Z,50.50
2019-03-25T02:33:37.038Z,50.40
2019-03-25T02:36:06.774Z,50.10
2019-03-25T02:38:36.825Z,50.40
2019-03-25T02:41:06.518Z,50.40
2019-03-25T02:43:36.225Z,50.60
2019-03-25T02:46:06.015Z,50.40
2019-03-25T02:48:35.784Z,50.50
2019-03-25T02:51:05.609Z,50.40
2019-03-25T02:53:35.302Z,50.50
2019-03-25T02:56:05.013Z,50.50
2019-03-25T02:58:34.702Z,50.50
2019-03-25T03:01:04.485Z,50.40
2019-03-25T03:03:34.232Z,50.30
2019-03-25T03:06:03.939Z,49.90
2019-03-25T03:08:33.690Z,49.90
2019-03-25T03:11:03.424Z,49.80
2019-03-25T03:13:33.116Z,49.70
2019-03-25T03:16:02.894Z,49.80
2019-03-25T03:18:32.610Z,50.00
2019-03-25T03:21:02.350Z,50.20
2019-03-25T03:23:32.091Z,51.30
2019-03-25T03:26:01.766Z,51.10
2019-03-25T03:28:31.460Z,51.40
2019-03-25T03:31:01.139Z,51.40
2019-03-25T03:33:30.881Z,51.40
2019-03-25T03:36:00.536Z,51.40
2019-03-25T03:38:30.228Z,51.20
2019-03-25T03:41:00.032Z,51.00
2019-03-25T03:43:29.741Z,51.20
2019-03-25T03:45:59.846Z,50.90
2019-03-25T03:48:29.653Z,50.80
2019-03-25T03:50:59.562Z,50.90
2019-03-25T03:53:29.545Z,50.40
2019-03-25T03:56:13.055Z,50.60
2019-03-25T03:58:33.738Z,50.00
2019-03-25T04:01:03.832Z,49.90
2019-03-25T04:03:33.539Z,49.90
2019-03-25T04:06:03.212Z,49.80
2019-03-25T04:08:32.992Z,49.90
2019-03-25T04:11:02.749Z,49.80
2019-03-25T04:13:32.440Z,49.90
2019-03-25T04:16:02.115Z,49.70
2019-03-25T04:18:31.849Z,49.60
2019-03-25T04:21:01.516Z,49.50
2019-03-25T04:23:31.191Z,49.70
2019-03-25T04:26:00.907Z,50.40
2019-03-25T04:28:30.743Z,49.90
2019-03-25T04:31:00.429Z,49.70
2019-03-25T04:33:30.112Z,49.70
2019-03-25T04:35:59.805Z,49.70
2019-03-25T04:38:29.587Z,50.00
2019-03-25T04:40:59.308Z,50.50
2019-03-25T04:43:29.007Z,50.70
2019-03-25T04:45:58.700Z,50.80
2019-03-25T04:48:28.475Z,50.80
2019-03-25T04:50:58.161Z,50.50
2019-03-25T04:53:27.846Z,50.50
2019-03-25T04:55:57.545Z,50.50
2019-03-25T04:58:27.227Z,50.80
2019-03-25T05:00:56.999Z,51.20
2019-03-25T05:03:26.679Z,51.40
2019-03-25T05:05:56.582Z,51.60
2019-03-25T05:08:26.292Z,51.70
2019-03-25T05:10:55.996Z,51.50
2019-03-25T05:13:25.677Z,51.90
2019-03-25T05:15:55.458Z,52.00
2019-03-25T05:18:25.300Z,52.20
2019-03-25T05:20:55.002Z,52.10
2019-03-25T05:23:25.853Z,53.00
2019-03-25T05:25:55.547Z,52.60
2019-03-25T05:28:25.248Z,52.70
2019-03-25T05:30:55.394Z,52.70
2019-03-25T05:33:25.063Z,52.70
2019-03-25T05:35:54.766Z,53.10
2019-03-25T05:38:24.512Z,53.40
2019-03-25T05:40:54.233Z,54.00
2019-03-25T05:43:24.176Z,54.00
2019-03-25T05:45:53.857Z,54.30
2019-03-25T05:48:23.772Z,54.30
2019-03-25T05:50:53.487Z,54.80
2019-03-25T05:53:23.179Z,54.90
2019-03-25T05:55:52.881Z,54.70
2019-03-25T05:58:22.607Z,55.00
2019-03-25T06:00:52.570Z,54.50
2019-03-25T06:03:22.617Z,54.50
2019-03-25T06:05:52.413Z,54.90
2019-03-25T06:08:22.135Z,54.40
2019-03-25T06:10:51.836Z,54.70
2019-03-25T06:13:21.633Z,54.30
2019-03-25T06:15:51.569Z,54.50
2019-03-25T06:18:21.300Z,55.40
2019-03-25T06:20:51.071Z,54.70
2019-03-25T06:23:20.971Z,54.40
2019-03-25T06:25:50.728Z,54.80
2019-03-25T06:28:20.426Z,55.30
2019-03-25T06:30:50.113Z,54.80
2019-03-25T06:33:19.833Z,54.50
2019-03-25T06:35:49.528Z,54.50
2019-03-25T06:38:19.321Z,53.50
2019-03-25T06:40:49.352Z,53.20
2019-03-25T06:43:19.087Z,53.20
2019-03-25T06:45:48.789Z,52.90
2019-03-25T06:48:18.548Z,52.10
2019-03-25T06:50:48.260Z,51.80
2019-03-25T06:53:18.024Z,49.80
2019-03-25T06:55:47.729Z,49.30
2019-03-25T06:58:17.496Z,48.70
2019-03-25T07:00:47.210Z,47.50
2019-03-25T07:03:16.902Z,46.80
2019-03-25T07:05:46.771Z,46.30
2019-03-25T07:08:16.472Z,45.70
2019-03-25T07:10:46.341Z,45.70
2019-03-25T07:13:16.028Z,46.00
2019-03-25T07:15:45.741Z,45.40
2019-03-25T07:18:15.515Z,44.80
2019-03-25T07:20:45.225Z,44.90
2019-03-25T07:23:14.916Z,45.30
2019-03-25T07:25:44.656Z,45.40
2019-03-25T07:28:14.334Z,45.50
2019-03-25T07:30:44.372Z,46.00
2019-03-25T07:33:14.085Z,45.80
2019-03-25T07:35:43.792Z,45.80
2019-03-25T07:38:13.468Z,46.30
2019-03-25T07:40:43.177Z,46.30
2019-03-25T07:43:12.872Z,47.10
2019-03-25T07:45:42.571Z,46.80
2019-03-25T07:48:12.324Z,47.20
2019-03-25T07:50:42.017Z,47.00
2019-03-25T07:53:11.743Z,46.90
2019-03-25T07:55:41.589Z,46.10
2019-03-25T07:58:11.329Z,46.30
2019-03-25T08:00:41.243Z,46.00
2019-03-25T08:03:11.297Z,45.80
2019-03-25T08:05:40.982Z,45.40
2019-03-25T08:08:10.725Z,45.50
2019-03-25T08:10:40.482Z,45.00
2019-03-25T08:13:10.358Z,43.90
2019-03-25T08:15:40.106Z,42.70
2019-03-25T08:18:09.856Z,41.10
2019-03-25T08:20:39.520Z,40.50
2019-03-25T08:23:09.236Z,38.60
2019-03-25T08:25:39.019Z,39.00
2019-03-25T08:28:08.989Z,39.70
2019-03-25T08:30:38.700Z,39.90
2019-03-25T08:33:08.428Z,41.00
2019-03-25T08:35:38.145Z,42.70
2019-03-25T08:38:07.926Z,43.40
2019-03-25T08:40:37.699Z,44.40
2019-03-25T08:43:07.797Z,45.40
2019-03-25T08:45:37.515Z,45.00
2019-03-25T08:48:07.360Z,45.20
2019-03-25T08:50:37.091Z,45.70
2019-03-25T08:53:06.827Z,46.40
2019-03-25T08:55:36.575Z,46.10
2019-03-25T08:58:11.970Z,45.80
2019-03-25T09:00:38.036Z,45.80
2019-03-25T09:03:07.700Z,45.20
2019-03-25T09:05:37.421Z,45.20
2019-03-25T09:08:07.107Z,45.60
2019-03-25T09:10:36.844Z,45.90
2019-03-25T09:13:06.702Z,46.60
2019-03-25T09:15:36.531Z,48.10
2019-03-25T09:18:09.763Z,48.60
2019-03-25T09:20:39.680Z,48.90
2019-03-25T09:23:13.609Z,49.10
2019-03-25T09:25:49.592Z,48.80
2019-03-25T09:28:26.328Z,47.70
2019-03-25T09:31:36.347Z,47.40
2019-03-25T09:34:00.116Z,47.20
2019-03-25T09:36:55.025Z,47.70
2019-03-25T09:39:28.513Z,48.20
2019-03-25T09:42:21.743Z,48.40
2019-03-25T09:45:01.210Z,48.30
2019-03-25T09:48:18.084Z,48.60
2019-03-25T09:51:13.548Z,48.50
2019-03-25T09:53:56.540Z,48.30
2019-03-25T09:57:02.628Z,49.20
2019-03-25T10:03:31.091Z,51.20
2019-03-25T10:06:50.500Z,51.50
2019-03-25T10:12:38.098Z,52.40
2019-03-25T10:15:39.668Z,52.80
2019-03-25T10:18:54.798Z,52.60
2019-03-25T10:21:27.964Z,51.50
2019-03-25T10:24:37.005Z,51.30
2019-03-25T10:27:40.629Z,51.10
2019-03-25T10:33:43.279Z,49.90
2019-03-25T10:36:37.957Z,48.70
2019-03-25T10:40:10.024Z,48.80
2019-03-25T10:43:02.126Z,49.40
2019-03-25T10:45:57.289Z,48.30
2019-03-25T10:48:41.418Z,48.10
2019-03-25T10:52:19.651Z,46.40
2019-03-25T10:57:52.883Z,46.50
2019-03-25T11:00:45.970Z,45.60
2019-03-25T11:04:24.341Z,45.80
2019-03-25T11:07:14.521Z,45.70
2019-03-25T11:09:44.413Z,47.60
2019-03-25T11:12:14.225Z,48.40
2019-03-25T11:14:44.036Z,48.50
2019-03-25T11:17:13.785Z,49.00
2019-03-25T11:19:43.516Z,49.20
2019-03-25T11:22:13.200Z,49.70
2019-03-25T11:24:43.308Z,49.90
2019-03-25T11:27:13.016Z,49.90
2019-03-25T11:29:42.799Z,49.90
2019-03-25T11:32:12.487Z,51.40
2019-03-25T11:34:42.310Z,52.80
2019-03-25T11:37:12.153Z,53.60
2019-03-25T11:39:41.876Z,53.50
2019-03-25T11:42:11.603Z,53.60
2019-03-25T11:44:41.448Z,53.90
2019-03-25T11:47:11.128Z,53.50
2019-03-25T11:49:40.950Z,55.60
2019-03-25T11:52:10.746Z,55.70
2019-03-25T11:54:40.499Z,56.40
2019-03-25T11:57:10.208Z,54.80
2019-03-25T11:59:39.964Z,55.20
2019-03-25T12:02:17.284Z,55.30
2019-03-25T12:04:41.415Z,57.20
2019-03-25T12:07:11.144Z,55.20
2019-03-25T12:09:41.661Z,51.80
2019-03-25T12:12:11.556Z,48.20
2019-03-25T12:14:41.294Z,45.50
2019-03-25T12:17:11.141Z,42.40
2019-03-25T12:19:40.999Z,41.30
2019-03-25T12:22:12.813Z,38.30
2019-03-25T12:24:42.153Z,37.30
2019-03-25T12:27:12.084Z,34.90
2019-03-25T12:29:41.924Z,34.80
2019-03-25T12:32:11.672Z,37.60
2019-03-25T12:34:41.358Z,35.80
2019-03-25T12:37:11.396Z,28.90
2019-03-25T12:39:41.280Z,23.40
2019-03-25T12:42:11.243Z,21.30
2019-03-25T12:44:41.187Z,19.10
2019-03-25T12:47:10.895Z,17.50
2019-03-25T12:49:41.008Z,16.00
2019-03-25T12:52:10.952Z,14.70
2019-03-25T12:54:40.686Z,14.30
2019-03-25T12:57:10.554Z,14.70
2019-03-25T12:59:41.568Z,14.10
2019-03-25T13:02:11.844Z,13.60
2019-03-25T13:04:41.564Z,14.30
2019-03-25T13:07:11.389Z,16.00
2019-03-25T13:09:41.125Z,19.40
2019-03-25T13:12:10.882Z,19.10
2019-03-25T13:14:40.645Z,16.60
2019-03-25T13:17:10.448Z,18.30
2019-03-25T13:19:40.338Z,21.40
2019-03-25T13:22:10.016Z,24.80
2019-03-25T13:24:39.743Z,30.10
2019-03-25T13:27:09.469Z,36.00
2019-03-25T13:29:39.528Z,38.60
2019-03-25T13:32:09.277Z,38.30
2019-03-25T13:34:39.071Z,39.90
2019-03-25T13:37:08.797Z,41.80
2019-03-25T13:39:38.651Z,36.10
2019-03-25T13:42:08.455Z,27.40
2019-03-25T13:44:38.207Z,23.20
2019-03-25T13:47:07.931Z,20.70
2019-03-25T13:49:37.885Z,19.30
2019-03-25T13:52:07.615Z,19.60
2019-03-25T13:54:37.375Z,23.10
2019-03-25T13:57:07.057Z,27.00
2019-03-25T13:59:36.893Z,27.90
2019-03-25T14:02:06.846Z,26.60
2019-03-25T14:04:36.662Z,27.10
2019-03-25T14:07:06.564Z,28.70
2019-03-25T14:09:36.332Z,30.60
2019-03-25T14:12:06.116Z,32.90
2019-03-25T14:14:35.808Z,33.80
2019-03-25T14:17:05.764Z,35.00
2019-03-25T14:19:35.620Z,36.00
2019-03-25T14:22:05.467Z,35.90
2019-03-25T14:24:35.188Z,36.50
2019-03-25T14:27:05.189Z,37.70
2019-03-25T14:29:34.916Z,38.70
2019-03-25T14:32:04.644Z,41.70
2019-03-25T14:34:44.411Z,48.90
2019-03-25T14:37:07.528Z,53.50
2019-03-25T14:39:37.438Z,56.70
2019-03-25T14:42:07.252Z,58.20
2019-03-25T14:44:37.292Z,58.70
2019-03-25T14:47:07.016Z,59.60
2019-03-25T14:49:36.980Z,60.20
2019-03-25T14:52:06.700Z,61.30
2019-03-25T14:54:36.385Z,60.60
2019-03-25T14:57:06.116Z,61.70
2019-03-25T14:59:36.104Z,59.60
2019-03-25T15:02:06.061Z,60.30
2019-03-25T15:04:35.861Z,60.30
2019-03-25T15:07:05.704Z,60.30
2019-03-25T15:09:35.434Z,59.30
2019-03-25T15:12:05.172Z,60.00
2019-03-25T15:14:35.172Z,58.30
2019-03-25T15:17:05.285Z,59.30
2019-03-25T15:19:34.989Z,58.10
2019-03-25T15:22:04.724Z,58.10
2019-03-25T15:24:34.445Z,58.20
2019-03-25T15:27:04.789Z,58.00
2019-03-25T15:29:34.530Z,58.00
2019-03-25T15:32:04.239Z,58.60
2019-03-25T15:34:34.001Z,57.60
2019-03-25T15:37:03.770Z,57.90
2019-03-25T15:39:33.499Z,57.20
2019-03-25T15:42:03.427Z,57.70
2019-03-25T15:44:33.196Z,57.10
2019-03-25T15:47:03.128Z,56.60
2019-03-25T15:49:33.022Z,57.00
2019-03-25T15:52:02.988Z,57.00
2019-03-25T15:54:32.907Z,57.00
2019-03-25T15:57:02.667Z,56.50
2019-03-25T15:59:32.460Z,56.70
2019-03-25T16:02:02.179Z,56.50
2019-03-25T16:04:32.221Z,56.30
2019-03-25T16:07:01.925Z,56.80
2019-03-25T16:09:31.744Z,57.20
2019-03-25T16:12:01.622Z,57.30
2019-03-25T16:14:31.597Z,56.60
2019-03-25T16:17:01.313Z,56.20
2019-03-25T16:19:31.039Z,55.80
2019-03-25T16:22:00.923Z,57.70
2019-03-25T16:24:30.637Z,60.20
2019-03-25T16:27:00.369Z,60.90
2019-03-25T16:29:30.092Z,59.60
2019-03-25T16:31:59.803Z,60.00
2019-03-25T16:34:29.663Z,60.60
2019-03-25T16:36:59.352Z,60.60
2019-03-25T16:39:29.103Z,60.90
2019-03-25T16:41:58.819Z,60.80
2019-03-25T16:44:28.561Z,61.80
2019-03-25T16:46:58.284Z,62.50
2019-03-25T16:49:28.129Z,65.00
2019-03-25T16:51:57.921Z,64.80
2019-03-25T16:54:27.596Z,65.20
2019-03-25T16:56:57.596Z,66.50
2019-03-25T16:59:27.388Z,66.80
2019-03-25T17:01:57.100Z,67.00
2019-03-25T17:04:26.942Z,65.80
2019-03-25T17:06:56.684Z,66.80
2019-03-25T17:09:26.352Z,66.70
2019-03-25T17:11:56.155Z,67.00
2019-03-25T17:14:25.839Z,63.10
2019-03-25T17:16:55.593Z,64.10
2019-03-25T17:19:25.333Z,64.80
2019-03-25T17:21:58.334Z,64.60
2019-03-25T17:24:26.947Z,62.70
2019-03-25T17:26:57.206Z,64.30
2019-03-25T17:29:27.014Z,65.00
2019-03-25T17:31:56.841Z,63.80
2019-03-25T17:34:26.572Z,64.60
2019-03-25T17:36:56.304Z,64.10
2019-03-25T17:39:26.097Z,63.60
2019-03-25T17:41:56.026Z,63.10
2019-03-25T17:44:25.815Z,63.30
2019-03-25T17:46:55.606Z,64.60
2019-03-25T17:49:25.325Z,63.70
2019-03-25T17:51:55.112Z,65.40
2019-03-25T17:54:24.916Z,66.40
2019-03-25T17:56:54.604Z,67.00
2019-03-25T17:59:24.321Z,67.90
2019-03-25T18:01:54.175Z,67.80
2019-03-25T18:04:23.904Z,67.80
2019-03-25T18:06:53.733Z,67.00
2019-03-25T18:09:23.447Z,66.30
2019-03-25T18:11:53.196Z,65.80
2019-03-25T18:14:23.008Z,65.40
2019-03-25T18:16:52.761Z,65.80
2019-03-25T18:19:22.592Z,65.20
2019-03-25T18:21:52.289Z,66.10
2019-03-25T18:24:22.584Z,65.80
2019-03-25T18:26:52.273Z,66.00
2019-03-25T18:29:22.041Z,66.90
2019-03-25T18:31:51.760Z,66.90
2019-03-25T18:34:22.703Z,66.80
2019-03-25T18:36:52.394Z,66.10
2019-03-25T18:39:22.181Z,67.20
2019-03-25T18:41:51.980Z,67.40
2019-03-25T18:44:21.723Z,67.80
2019-03-25T18:46:51.529Z,68.30
2019-03-25T18:49:21.281Z,68.50
2019-03-25T18:51:51.154Z,68.90
2019-03-25T18:54:20.961Z,69.30
2019-03-25T18:56:51.104Z,68.50
2019-03-25T18:59:20.907Z,68.00
2019-03-25T19:01:54.624Z,67.90
2019-03-25T19:04:22.206Z,69.00
2019-03-25T19:06:51.973Z,68.90
2019-03-25T19:09:21.872Z,69.10
2019-03-25T19:11:51.742Z,69.70
2019-03-25T19:14:21.708Z,69.20
2019-03-25T19:16:51.604Z,69.60
2019-03-25T19:19:21.523Z,69.50
2019-03-25T19:21:51.351Z,70.20
2019-03-25T19:24:21.328Z,70.30
2019-03-25T19:26:51.100Z,69.90
2019-03-25T19:29:21.359Z,69.40
2019-03-25T19:31:51.200Z,69.80
2019-03-25T19:34:20.951Z,69.50
2019-03-25T19:36:50.854Z,69.80
2019-03-25T19:39:20.663Z,70.50
2019-03-25T19:41:50.358Z,69.70
2019-03-25T19:44:20.117Z,69.30
2019-03-25T19:46:50.094Z,69.80
2019-03-25T19:49:19.959Z,69.50
2019-03-25T19:51:49.797Z,69.20
2019-03-25T19:54:19.639Z,69.60
2019-03-25T19:56:49.492Z,69.40
2019-03-25T19:59:19.249Z,70.10
2019-03-25T20:01:49.108Z,69.20
2019-03-25T20:04:19.025Z,69.60
2019-03-25T20:06:48.786Z,69.70
2019-03-25T20:09:18.590Z,70.00
2019-03-25T20:11:48.376Z,69.50
2019-03-25T20:14:18.210Z,69.50
2019-03-25T20:16:48.121Z,70.50
2019-03-25T20:19:18.213Z,70.50
2019-03-25T20:21:48.182Z,69.70
2019-03-25T20:24:17.928Z,69.70
2019-03-25T20:26:47.856Z,69.80
2019-03-25T20:29:17.598Z,69.90
2019-03-25T20:31:47.563Z,69.80
2019-03-25T20:34:17.380Z,70.30
2019-03-25T20:36:47.209Z,70.80
2019-03-25T20:39:17.179Z,71.00
2019-03-25T20:41:46.975Z,71.20
2019-03-25T20:44:16.696Z,71.60
2019-03-25T20:46:46.485Z,72.10
2019-03-25T20:49:16.269Z,72.30
2019-03-25T20:51:46.038Z,72.30
2019-03-25T20:54:15.778Z,71.90
2019-03-25T20:56:45.577Z,71.90
2019-03-25T20:59:15.363Z,72.40
2019-03-25T21:01:45.180Z,71.90
2019-03-25T21:04:14.964Z,72.80
2019-03-25T21:06:44.660Z,71.60
2019-03-25T21:09:14.496Z,71.90
2019-03-25T21:11:44.318Z,71.60
2019-03-25T21:14:14.028Z,72.00
2019-03-25T21:16:43.807Z,72.30
2019-03-25T21:19:13.647Z,72.40
2019-03-25T21:21:43.451Z,72.10
2019-03-25T21:24:13.318Z,72.20
2019-03-25T21:26:43.130Z,72.50
2019-03-25T21:29:12.915Z,72.70
2019-03-25T21:31:42.742Z,72.80
2019-03-25T21:34:12.751Z,72.60
2019-03-25T21:36:42.576Z,72.70
2019-03-25T21:39:12.393Z,72.90
2019-03-25T21:41:42.202Z,73.30
2019-03-25T21:44:11.978Z,72.50
2019-03-25T21:46:41.855Z,72.50
2019-03-25T21:49:11.890Z,72.70
2019-03-25T21:51:41.800Z,73.00
2019-03-25T21:54:11.610Z,73.40
2019-03-25T21:56:41.492Z,73.00
2019-03-25T21:59:11.353Z,73.40
2019-03-25T22:01:41.278Z,73.40
2019-03-25T22:04:11.080Z,73.40
2019-03-25T22:06:40.795Z,73.60
2019-03-25T22:09:10.476Z,73.70
2019-03-25T22:11:40.222Z,73.70
2019-03-25T22:14:09.955Z,73.70
2019-03-25T22:16:39.677Z,73.60
2019-03-25T22:19:09.437Z,73.70
2019-03-25T22:21:39.140Z,73.90
2019-03-25T22:24:08.828Z,73.50
2019-03-25T22:26:38.576Z,73.70
2019-03-25T22:29:08.490Z,73.70
2019-03-25T22:31:38.196Z,73.50
2019-03-25T22:34:07.970Z,73.80
2019-03-25T22:36:37.675Z,74.40
2019-03-25T22:39:08.423Z,74.00
2019-03-25T22:41:38.147Z,74.10
2019-03-25T22:44:07.869Z,74.40
2019-03-25T22:46:37.604Z,74.20
2019-03-25T22:49:07.321Z,73.90
2019-03-25T22:51:37.028Z,74.30
2019-03-25T22:54:06.721Z,73.70
2019-03-25T22:56:36.441Z,73.80
2019-03-25T22:59:06.120Z,74.10
2019-03-25T23:01:35.827Z,74.20
2019-03-25T23:04:05.561Z,73.90
2019-03-25T23:06:35.329Z,73.60
2019-03-25T23:09:06.833Z,73.40
2019-03-25T23:11:36.575Z,73.50
2019-03-25T23:14:06.300Z,73.50
2019-03-25T23:16:35.997Z,72.80
2019-03-25T23:19:05.713Z,72.80
2019-03-25T23:21:35.711Z,72.90
2019-03-25T23:24:05.559Z,73.10
2019-03-25T23:26:35.273Z,73.30
2019-03-25T23:29:05.023Z,73.40
2019-03-25T23:31:34.747Z,72.90
2019-03-25T23:34:04.591Z,72.80
2019-03-25T23:36:34.373Z,72.50
2019-03-25T23:39:05.384Z,73.00
2019-03-25T23:41:35.080Z,73.00
2019-03-25T23:44:04.840Z,73.10
2019-03-25T23:46:34.727Z,73.40
2019-03-25T23:49:04.546Z,73.20
2019-03-25T23:51:34.840Z,73.40
2019-03-25T23:54:15.423Z,73.00
2019-03-25T23:56:45.136Z,73.50
2019-03-25T23:59:14.849Z,73.50
